createdAt,value
2022-12-25T00:00:52.370Z,7.52
2022-12-25T00:01:53.877Z,7.52
2022-12-25T00:02:55.792Z,7.53
2022-12-25T00:03:57.584Z,7.52
2022-12-25T00:04:59.066Z,7.53
2022-12-25T00:06:00.797Z,7.53
2022-12-25T00:07:02.594Z,7.54
2022-12-25T00:08:04.281Z,7.54
2022-12-25T00:09:06.038Z,7.54
2022-12-25T00:10:07.732Z,7.54
2022-12-25T00:11:09.469Z,7.54
2022-12-25T00:12:11.204Z,7.54
2022-12-25T00:13:12.946Z,7.53
2022-12-25T00:14:14.725Z,7.54
2022-12-25T00:15:16.407Z,7.54
2022-12-25T00:16:18.209Z,7.54
2022-12-25T00:17:19.868Z,7.54
2022-12-25T00:18:21.605Z,7.54
2022-12-25T00:19:23.361Z,7.55
2022-12-25T00:20:25.071Z,7.55
2022-12-25T00:21:26.807Z,7.54
2022-12-25T00:22:28.542Z,7.55
2022-12-25T00:23:31.541Z,7.55
2022-12-25T00:24:34.228Z,7.56
2022-12-25T00:25:38.889Z,7.56
2022-12-25T00:26:40.667Z,7.57
2022-12-25T00:27:42.328Z,7.57
2022-12-25T00:28:44.081Z,7.58
2022-12-25T00:29:45.825Z,7.58
2022-12-25T00:30:47.545Z,7.58
2022-12-25T00:31:49.326Z,7.58
2022-12-25T00:32:50.987Z,7.58
2022-12-25T00:33:52.751Z,7.58
2022-12-25T00:34:54.453Z,7.58
2022-12-25T00:35:56.243Z,7.59
2022-12-25T00:36:57.894Z,7.58
2022-12-25T00:37:59.625Z,7.58
2022-12-25T00:39:01.355Z,7.58
2022-12-25T00:40:03.109Z,7.57
2022-12-25T00:41:04.844Z,7.58
2022-12-25T00:42:06.550Z,7.58
2022-12-25T00:43:08.310Z,7.59
2022-12-25T00:44:11.110Z,7.58
2022-12-25T00:45:11.765Z,7.58
2022-12-25T00:46:13.694Z,7.58
2022-12-25T00:47:15.287Z,7.58
2022-12-25T00:48:16.970Z,7.57
2022-12-25T00:49:18.722Z,7.57
2022-12-25T00:50:20.436Z,7.57
2022-12-25T00:51:22.187Z,7.57
2022-12-25T00:52:23.873Z,7.57
2022-12-25T00:53:25.629Z,7.57
2022-12-25T00:54:27.362Z,7.56
2022-12-25T00:55:29.105Z,7.56
2022-12-25T00:56:30.829Z,7.55
2022-12-25T00:57:32.559Z,7.55
2022-12-25T00:58:34.305Z,7.55
2022-12-25T00:59:36.048Z,7.54
2022-12-25T01:00:37.777Z,7.54
2022-12-25T01:01:39.802Z,7.54
2022-12-25T01:02:41.398Z,7.53
2022-12-25T01:03:42.961Z,7.54
2022-12-25T01:04:44.687Z,7.54
2022-12-25T01:05:46.432Z,7.53
2022-12-25T01:06:48.183Z,7.55
2022-12-25T01:07:49.892Z,7.54
2022-12-25T01:08:51.622Z,7.55
2022-12-25T01:09:53.365Z,7.55
2022-12-25T01:10:55.371Z,7.55
2022-12-25T01:11:56.832Z,7.55
2022-12-25T01:12:58.560Z,7.55
2022-12-25T01:14:00.295Z,7.56
2022-12-25T01:15:02.055Z,7.56
2022-12-25T01:16:03.895Z,7.56
2022-12-25T01:17:05.508Z,7.56
2022-12-25T01:18:08.078Z,7.57
2022-12-25T01:19:08.969Z,7.57
2022-12-25T01:20:10.696Z,7.56
2022-12-25T01:21:12.483Z,7.56
2022-12-25T01:22:14.174Z,7.57
2022-12-25T01:23:15.890Z,7.57
2022-12-25T01:24:17.662Z,7.57
2022-12-25T01:25:19.360Z,7.57
2022-12-25T01:26:21.111Z,7.56
2022-12-25T01:27:22.838Z,7.57
2022-12-25T01:28:24.557Z,7.57
2022-12-25T01:29:26.276Z,7.57
2022-12-25T01:30:28.081Z,7.58
2022-12-25T01:31:29.896Z,7.58
2022-12-25T01:32:31.509Z,7.58
2022-12-25T01:33:33.217Z,7.59
2022-12-25T01:34:34.946Z,7.6
2022-12-25T01:35:36.704Z,7.59
2022-12-25T01:36:38.445Z,7.59
2022-12-25T01:37:40.161Z,7.6
2022-12-25T01:38:41.876Z,7.6
2022-12-25T01:39:43.619Z,7.61
2022-12-25T01:40:45.374Z,7.61
2022-12-25T01:41:47.099Z,7.6
2022-12-25T01:42:48.834Z,7.61
2022-12-25T01:43:50.541Z,7.6
2022-12-25T01:44:52.283Z,7.59
2022-12-25T01:45:54.051Z,7.59
2022-12-25T01:46:55.777Z,7.59
2022-12-25T01:47:57.479Z,7.58
2022-12-25T01:48:59.213Z,7.57
2022-12-25T01:50:00.958Z,7.58
2022-12-25T01:51:02.690Z,7.58
2022-12-25T01:52:04.452Z,7.56
2022-12-25T01:53:06.155Z,7.57
2022-12-25T01:54:07.907Z,7.56
2022-12-25T01:55:09.614Z,7.56
2022-12-25T01:56:11.336Z,7.54
2022-12-25T01:57:13.101Z,7.54
2022-12-25T01:58:14.834Z,7.54
2022-12-25T01:59:16.553Z,7.53
2022-12-25T02:00:18.285Z,7.52
2022-12-25T02:01:20.186Z,7.51
2022-12-25T02:02:21.976Z,7.5
2022-12-25T02:03:23.637Z,7.48
2022-12-25T02:04:25.217Z,7.47
2022-12-25T02:05:26.977Z,7.47
2022-12-25T02:06:28.704Z,7.45
2022-12-25T02:07:30.637Z,7.43
2022-12-25T02:08:32.156Z,7.42
2022-12-25T02:09:33.909Z,7.4
2022-12-25T02:10:35.614Z,7.38
2022-12-25T02:11:37.355Z,7.37
2022-12-25T02:12:39.100Z,7.34
2022-12-25T02:13:40.879Z,7.33
2022-12-25T02:14:42.560Z,7.31
2022-12-25T02:15:44.284Z,7.3
2022-12-25T02:16:57.879Z,7.28
2022-12-25T02:17:47.755Z,7.26
2022-12-25T02:18:49.483Z,7.25
2022-12-25T02:19:51.215Z,7.23
2022-12-25T02:20:52.967Z,7.22
2022-12-25T02:21:54.716Z,7.22
2022-12-25T02:22:56.413Z,7.21
2022-12-25T02:23:58.179Z,7.21
2022-12-25T02:24:59.891Z,7.21
2022-12-25T02:26:01.639Z,7.21
2022-12-25T02:27:03.378Z,7.2
2022-12-25T02:28:05.103Z,7.22
2022-12-25T02:29:06.809Z,7.21
2022-12-25T02:30:08.594Z,7.21
2022-12-25T02:31:10.300Z,7.21
2022-12-25T02:32:12.093Z,7.21
2022-12-25T02:33:13.752Z,7.22
2022-12-25T02:34:15.495Z,7.22
2022-12-25T02:35:17.213Z,7.24
2022-12-25T02:36:18.959Z,7.24
2022-12-25T02:37:20.706Z,7.25
2022-12-25T02:38:22.405Z,7.27
2022-12-25T02:39:24.138Z,7.27
2022-12-25T02:40:25.910Z,7.28
2022-12-25T02:41:27.629Z,7.3
2022-12-25T02:42:29.372Z,7.31
2022-12-25T02:43:31.096Z,7.33
2022-12-25T02:44:32.832Z,7.33
2022-12-25T02:45:34.607Z,7.34
2022-12-25T02:46:36.321Z,7.36
2022-12-25T02:47:38.052Z,7.36
2022-12-25T02:48:39.751Z,7.37
2022-12-25T02:49:41.495Z,7.38
2022-12-25T02:50:43.224Z,7.38
2022-12-25T02:51:44.955Z,7.38
2022-12-25T02:52:46.708Z,7.39
2022-12-25T02:53:48.441Z,7.39
2022-12-25T02:54:50.184Z,7.39
2022-12-25T02:55:51.903Z,7.4
2022-12-25T02:56:53.622Z,7.41
2022-12-25T02:57:55.355Z,7.42
2022-12-25T02:58:57.120Z,7.41
2022-12-25T02:59:58.827Z,7.42
2022-12-25T03:01:00.747Z,7.42
2022-12-25T03:02:02.433Z,7.43
2022-12-25T03:03:04.055Z,7.42
2022-12-25T03:04:05.784Z,7.43
2022-12-25T03:05:07.503Z,7.43
2022-12-25T03:06:09.285Z,7.43
2022-12-25T03:07:10.973Z,7.43
2022-12-25T03:08:12.702Z,7.44
2022-12-25T03:09:14.478Z,7.44
2022-12-25T03:10:16.183Z,7.44
2022-12-25T03:11:17.920Z,7.45
2022-12-25T03:12:19.645Z,7.46
2022-12-25T03:13:21.383Z,7.46
2022-12-25T03:14:23.104Z,7.46
2022-12-25T03:15:24.836Z,7.47
2022-12-25T03:16:26.691Z,7.47
2022-12-25T03:17:28.316Z,7.48
2022-12-25T03:18:30.033Z,7.48
2022-12-25T03:19:31.794Z,7.49
2022-12-25T03:20:33.506Z,7.49
2022-12-25T03:21:35.221Z,7.51
2022-12-25T03:22:36.990Z,7.51
2022-12-25T03:23:38.711Z,7.51
2022-12-25T03:24:40.462Z,7.51
2022-12-25T03:25:42.167Z,7.51
2022-12-25T03:26:43.908Z,7.51
2022-12-25T03:27:45.638Z,7.51
2022-12-25T03:28:47.359Z,7.52
2022-12-25T03:29:49.170Z,7.51
2022-12-25T03:30:50.859Z,7.52
2022-12-25T03:31:52.582Z,7.52
2022-12-25T03:32:54.312Z,7.51
2022-12-25T03:33:56.027Z,7.51
2022-12-25T03:34:57.805Z,7.51
2022-12-25T03:35:59.513Z,7.51
2022-12-25T03:37:01.264Z,7.51
2022-12-25T03:38:02.968Z,7.51
2022-12-25T03:39:04.723Z,7.52
2022-12-25T03:40:06.455Z,7.53
2022-12-25T03:41:08.162Z,7.54
2022-12-25T03:42:09.893Z,7.54
2022-12-25T03:43:11.661Z,7.54
2022-12-25T03:44:13.394Z,7.56
2022-12-25T03:45:15.126Z,7.56
2022-12-25T03:46:16.916Z,7.57
2022-12-25T03:47:18.578Z,7.56
2022-12-25T03:48:20.300Z,7.57
2022-12-25T03:49:22.003Z,7.57
2022-12-25T03:50:23.794Z,7.57
2022-12-25T03:51:25.488Z,7.58
2022-12-25T03:52:27.222Z,7.59
2022-12-25T03:53:28.975Z,7.58
2022-12-25T03:54:30.696Z,7.59
2022-12-25T03:55:32.424Z,7.59
2022-12-25T03:56:34.156Z,7.59
2022-12-25T03:57:35.867Z,7.58
2022-12-25T03:58:37.610Z,7.59
2022-12-25T03:59:39.365Z,7.57
2022-12-25T04:00:41.114Z,7.57
2022-12-25T04:01:42.993Z,7.55
2022-12-25T04:02:44.707Z,7.54
2022-12-25T04:03:46.401Z,7.52
2022-12-25T04:04:48.022Z,7.52
2022-12-25T04:05:49.769Z,7.5
2022-12-25T04:06:51.499Z,7.47
2022-12-25T04:07:53.210Z,7.46
2022-12-25T04:08:54.961Z,7.44
2022-12-25T04:09:56.712Z,7.43
2022-12-25T04:10:58.436Z,7.41
2022-12-25T04:12:02.733Z,7.4
2022-12-25T04:13:01.898Z,7.4
2022-12-25T04:14:03.627Z,7.39
2022-12-25T04:15:05.360Z,7.37
2022-12-25T04:16:07.198Z,7.36
2022-12-25T04:17:08.837Z,7.35
2022-12-25T04:18:10.560Z,7.33
2022-12-25T04:19:12.295Z,7.33
2022-12-25T04:20:14.027Z,7.32
2022-12-25T04:21:15.780Z,7.31
2022-12-25T04:22:17.498Z,7.29
2022-12-25T04:23:19.249Z,7.28
2022-12-25T04:24:20.958Z,7.28
2022-12-25T04:25:22.697Z,7.27
2022-12-25T04:26:24.445Z,7.25
2022-12-25T04:27:26.159Z,7.25
2022-12-25T04:28:27.928Z,7.23
2022-12-25T04:29:29.650Z,7.23
2022-12-25T04:30:31.360Z,7.23
2022-12-25T04:31:33.187Z,7.23
2022-12-25T04:32:34.824Z,7.22
2022-12-25T04:33:36.567Z,7.22
2022-12-25T04:34:38.297Z,7.21
2022-12-25T04:35:40.012Z,7.21
2022-12-25T04:36:41.795Z,7.2
2022-12-25T04:37:43.521Z,7.21
2022-12-25T04:38:45.236Z,7.22
2022-12-25T04:39:46.963Z,7.22
2022-12-25T04:40:48.699Z,7.23
2022-12-25T04:41:50.494Z,7.23
2022-12-25T04:42:52.172Z,7.25
2022-12-25T04:43:53.917Z,7.23
2022-12-25T04:44:55.629Z,7.26
2022-12-25T04:45:57.428Z,7.26
2022-12-25T04:46:59.133Z,7.26
2022-12-25T04:48:00.823Z,7.28
2022-12-25T04:49:02.576Z,7.28
2022-12-25T04:50:04.326Z,7.28
2022-12-25T04:51:06.025Z,7.29
2022-12-25T04:52:07.811Z,7.29
2022-12-25T04:53:09.484Z,7.29
2022-12-25T04:54:11.256Z,7.29
2022-12-25T04:55:12.945Z,7.29
2022-12-25T04:56:14.693Z,7.3
2022-12-25T04:57:16.504Z,7.29
2022-12-25T04:58:18.173Z,7.3
2022-12-25T04:59:19.897Z,7.29
2022-12-25T05:00:21.631Z,7.29
2022-12-25T05:01:23.498Z,7.28
2022-12-25T05:02:25.480Z,7.29
2022-12-25T05:03:26.883Z,7.28
2022-12-25T05:04:28.559Z,7.27
2022-12-25T05:05:30.305Z,7.27
2022-12-25T05:06:32.034Z,7.27
2022-12-25T05:07:33.800Z,7.26
2022-12-25T05:08:35.521Z,7.27
2022-12-25T05:09:37.236Z,7.26
2022-12-25T05:10:39.032Z,7.25
2022-12-25T05:11:40.692Z,7.26
2022-12-25T05:12:42.456Z,7.26
2022-12-25T05:13:44.160Z,7.25
2022-12-25T05:14:45.929Z,7.25
2022-12-25T05:15:47.690Z,7.25
2022-12-25T05:16:49.370Z,7.26
2022-12-25T05:17:51.130Z,7.25
2022-12-25T05:18:52.859Z,7.26
2022-12-25T05:19:54.650Z,7.26
2022-12-25T05:20:56.305Z,7.26
2022-12-25T05:21:58.022Z,7.26
2022-12-25T05:22:59.779Z,7.26
2022-12-25T05:24:01.496Z,7.26
2022-12-25T05:25:03.231Z,7.26
2022-12-25T05:26:04.967Z,7.26
2022-12-25T05:27:06.697Z,7.27
2022-12-25T05:28:08.447Z,7.27
2022-12-25T05:29:10.176Z,7.27
2022-12-25T05:30:11.904Z,7.28
2022-12-25T05:31:13.686Z,7.28
2022-12-25T05:32:15.358Z,7.28
2022-12-25T05:33:17.111Z,7.28
2022-12-25T05:34:18.854Z,7.28
2022-12-25T05:35:20.578Z,7.29
2022-12-25T05:36:22.314Z,7.3
2022-12-25T05:37:24.049Z,7.28
2022-12-25T05:38:25.801Z,7.3
2022-12-25T05:39:27.513Z,7.3
2022-12-25T05:40:29.228Z,7.3
2022-12-25T05:41:34.545Z,7.3
2022-12-25T05:42:32.716Z,7.3
2022-12-25T05:43:34.454Z,7.31
2022-12-25T05:44:36.173Z,7.31
2022-12-25T05:45:37.890Z,7.31
2022-12-25T05:46:39.706Z,7.32
2022-12-25T05:47:41.375Z,7.32
2022-12-25T05:48:43.138Z,7.33
2022-12-25T05:49:44.841Z,7.33
2022-12-25T05:50:46.577Z,7.34
2022-12-25T05:51:48.339Z,7.33
2022-12-25T05:52:50.033Z,7.33
2022-12-25T05:53:51.788Z,7.34
2022-12-25T05:54:53.502Z,7.34
2022-12-25T05:55:55.263Z,7.34
2022-12-25T05:56:57.000Z,7.34
2022-12-25T05:57:58.688Z,7.34
2022-12-25T05:59:00.461Z,7.34
2022-12-25T06:00:02.204Z,7.35
2022-12-25T06:01:03.889Z,7.34
2022-12-25T06:02:05.710Z,7.35
2022-12-25T06:03:07.422Z,7.35
2022-12-25T06:04:12.719Z,7.35
2022-12-25T06:05:10.843Z,7.36
2022-12-25T06:06:12.523Z,7.35
2022-12-25T06:07:14.271Z,7.35
2022-12-25T06:08:15.993Z,7.35
2022-12-25T06:09:17.749Z,7.35
2022-12-25T06:10:19.455Z,7.36
2022-12-25T06:11:21.209Z,7.37
2022-12-25T06:12:22.926Z,7.36
2022-12-25T06:13:24.674Z,7.36
2022-12-25T06:14:26.402Z,7.36
2022-12-25T06:15:28.127Z,7.36
2022-12-25T06:16:37.183Z,7.36
2022-12-25T06:17:31.600Z,7.36
2022-12-25T06:18:33.362Z,7.35
2022-12-25T06:19:35.084Z,7.35
2022-12-25T06:20:36.798Z,7.35
2022-12-25T06:21:38.540Z,7.35
2022-12-25T06:22:40.260Z,7.35
2022-12-25T06:23:42.117Z,7.35
2022-12-25T06:24:43.736Z,7.35
2022-12-25T06:25:45.468Z,7.35
2022-12-25T06:26:47.190Z,7.36
2022-12-25T06:27:48.939Z,7.35
2022-12-25T06:28:50.670Z,7.35
2022-12-25T06:29:52.410Z,7.36
2022-12-25T06:30:54.128Z,7.36
2022-12-25T06:31:55.898Z,7.36
2022-12-25T06:32:57.597Z,7.36
2022-12-25T06:33:59.349Z,7.36
2022-12-25T06:35:01.085Z,7.36
2022-12-25T06:36:02.815Z,7.35
2022-12-25T06:37:04.546Z,7.35
2022-12-25T06:38:06.341Z,7.35
2022-12-25T06:39:07.986Z,7.36
2022-12-25T06:40:09.768Z,7.34
2022-12-25T06:41:11.478Z,7.34
2022-12-25T06:42:13.706Z,7.35
2022-12-25T06:43:14.944Z,7.34
2022-12-25T06:44:16.568Z,7.35
2022-12-25T06:45:18.285Z,7.34
2022-12-25T06:46:20.081Z,7.35
2022-12-25T06:47:21.722Z,7.34
2022-12-25T06:48:23.438Z,7.35
2022-12-25T06:49:25.183Z,7.35
2022-12-25T06:50:26.916Z,7.36
2022-12-25T06:51:28.635Z,7.36
2022-12-25T06:52:30.365Z,7.36
2022-12-25T06:53:38.867Z,7.37
2022-12-25T06:54:33.860Z,7.37
2022-12-25T06:55:35.600Z,7.37
2022-12-25T06:56:37.309Z,7.38
2022-12-25T06:57:39.041Z,7.38
2022-12-25T06:58:40.812Z,7.39
2022-12-25T06:59:42.518Z,7.4
2022-12-25T07:00:44.303Z,7.39
2022-12-25T07:01:46.266Z,7.4
2022-12-25T07:02:47.840Z,7.4
2022-12-25T07:03:49.446Z,7.4
2022-12-25T07:04:51.204Z,7.4
2022-12-25T07:05:52.920Z,7.4
2022-12-25T07:06:54.646Z,7.41
2022-12-25T07:07:56.379Z,7.39
2022-12-25T07:08:58.125Z,7.4
2022-12-25T07:09:59.853Z,7.39
2022-12-25T07:11:01.599Z,7.4
2022-12-25T07:12:03.360Z,7.4
2022-12-25T07:13:05.052Z,7.4
2022-12-25T07:14:06.788Z,7.41
2022-12-25T07:15:08.529Z,7.41
2022-12-25T07:16:10.315Z,7.41
2022-12-25T07:17:12.006Z,7.41
2022-12-25T07:18:13.728Z,7.41
2022-12-25T07:19:15.469Z,7.41
2022-12-25T07:20:17.201Z,7.41
2022-12-25T07:21:18.953Z,7.41
2022-12-25T07:22:20.672Z,7.41
2022-12-25T07:23:22.404Z,7.41
2022-12-25T07:24:24.151Z,7.42
2022-12-25T07:25:25.894Z,7.41
2022-12-25T07:26:27.625Z,7.42
2022-12-25T07:27:29.348Z,7.42
2022-12-25T07:28:31.079Z,7.41
2022-12-25T07:29:32.801Z,7.41
2022-12-25T07:30:34.551Z,7.42
2022-12-25T07:31:36.301Z,7.42
2022-12-25T07:32:37.997Z,7.42
2022-12-25T07:33:39.767Z,7.41
2022-12-25T07:34:41.474Z,7.42
2022-12-25T07:35:43.284Z,7.42
2022-12-25T07:36:44.949Z,7.43
2022-12-25T07:37:46.676Z,7.42
2022-12-25T07:38:48.404Z,7.43
2022-12-25T07:39:50.145Z,7.43
2022-12-25T07:40:51.877Z,7.43
2022-12-25T07:41:53.612Z,7.43
2022-12-25T07:42:55.336Z,7.43
2022-12-25T07:43:57.074Z,7.44
2022-12-25T07:44:58.815Z,7.44
2022-12-25T07:46:00.654Z,7.44
2022-12-25T07:47:02.290Z,7.44
2022-12-25T07:48:05.776Z,7.44
2022-12-25T07:49:05.780Z,7.45
2022-12-25T07:50:07.470Z,7.45
2022-12-25T07:51:09.221Z,7.46
2022-12-25T07:52:10.954Z,7.46
2022-12-25T07:53:12.688Z,7.48
2022-12-25T07:54:14.416Z,7.49
2022-12-25T07:55:16.149Z,7.5
2022-12-25T07:56:17.919Z,7.51
2022-12-25T07:57:19.622Z,7.52
2022-12-25T07:58:23.444Z,7.52
2022-12-25T07:59:23.083Z,7.53
2022-12-25T08:00:24.840Z,7.54
2022-12-25T08:01:26.800Z,7.55
2022-12-25T08:02:28.787Z,7.56
2022-12-25T08:05:26.538Z,7.59
2022-12-25T08:06:31.592Z,7.6
2022-12-25T08:07:33.325Z,7.62
2022-12-25T08:08:35.049Z,7.62
2022-12-25T08:09:36.774Z,7.63
2022-12-25T08:10:38.528Z,7.64
2022-12-25T08:11:40.244Z,7.65
2022-12-25T08:12:41.983Z,7.65
2022-12-25T08:13:43.721Z,7.66
2022-12-25T08:14:45.442Z,7.67
2022-12-25T08:15:47.179Z,7.67
2022-12-25T08:16:48.963Z,7.67
2022-12-25T08:17:50.655Z,7.67
2022-12-25T08:18:52.403Z,7.66
2022-12-25T08:19:54.118Z,7.68
2022-12-25T08:20:55.846Z,7.68
2022-12-25T08:21:57.594Z,7.67
2022-12-25T08:22:59.334Z,7.67
2022-12-25T08:24:01.053Z,7.68
2022-12-25T08:25:02.786Z,7.67
2022-12-25T08:26:05.768Z,7.67
2022-12-25T08:27:06.261Z,7.68
2022-12-25T08:28:08.004Z,7.68
2022-12-25T08:29:09.747Z,7.69
2022-12-25T08:30:11.471Z,7.69
2022-12-25T08:31:13.285Z,7.7
2022-12-25T08:32:14.920Z,7.7
2022-12-25T08:33:17.704Z,7.71
2022-12-25T08:34:18.393Z,7.7
2022-12-25T08:35:20.144Z,7.71
2022-12-25T08:36:21.864Z,7.71
2022-12-25T08:37:23.595Z,7.72
2022-12-25T08:38:25.325Z,7.73
2022-12-25T08:39:27.051Z,7.73
2022-12-25T08:40:28.785Z,7.73
2022-12-25T08:41:30.546Z,7.74
2022-12-25T08:42:32.289Z,7.75
2022-12-25T08:43:34.021Z,7.74
2022-12-25T08:44:35.733Z,7.75
2022-12-25T08:45:37.446Z,7.74
2022-12-25T08:46:39.258Z,7.75
2022-12-25T08:47:40.963Z,7.75
2022-12-25T08:48:42.687Z,7.75
2022-12-25T08:49:44.409Z,7.75
2022-12-25T08:50:46.131Z,7.75
2022-12-25T08:51:47.854Z,7.74
2022-12-25T08:52:49.591Z,7.74
2022-12-25T08:53:51.363Z,7.75
2022-12-25T08:54:53.068Z,7.74
2022-12-25T08:55:54.820Z,7.74
2022-12-25T08:57:02.424Z,7.74
2022-12-25T08:57:58.271Z,7.74
2022-12-25T08:59:00.010Z,7.75
2022-12-25T09:00:01.770Z,7.74
2022-12-25T09:01:03.505Z,7.75
2022-12-25T09:02:05.302Z,7.75
2022-12-25T09:03:07.052Z,7.76
2022-12-25T09:04:08.667Z,7.77
2022-12-25T09:05:10.394Z,7.78
2022-12-25T09:06:12.128Z,7.78
2022-12-25T09:07:13.885Z,7.79
2022-12-25T09:08:15.602Z,7.79
2022-12-25T09:09:17.351Z,7.8
2022-12-25T09:10:19.062Z,7.8
2022-12-25T09:11:20.800Z,7.8
2022-12-25T09:12:37.520Z,7.8
2022-12-25T09:13:39.027Z,7.82
2022-12-25T09:14:40.803Z,7.81
2022-12-25T09:15:42.564Z,7.82
2022-12-25T09:16:44.242Z,7.82
2022-12-25T09:17:45.955Z,7.81
2022-12-25T09:18:47.747Z,7.82
2022-12-25T09:19:49.459Z,7.83
2022-12-25T09:20:51.142Z,7.83
2022-12-25T09:21:52.894Z,7.84
2022-12-25T09:22:54.624Z,7.85
2022-12-25T09:23:56.383Z,7.85
2022-12-25T09:24:58.110Z,7.87
2022-12-25T09:25:59.820Z,7.86
2022-12-25T09:27:01.592Z,7.87
2022-12-25T09:28:03.288Z,7.86
2022-12-25T09:29:05.016Z,7.88
2022-12-25T09:30:06.755Z,7.87
2022-12-25T09:31:08.513Z,7.88
2022-12-25T09:32:10.217Z,7.88
2022-12-25T09:33:11.945Z,7.88
2022-12-25T09:34:17.225Z,7.89
2022-12-25T09:35:15.412Z,7.89
2022-12-25T09:36:17.155Z,7.9
2022-12-25T09:37:18.876Z,7.9
2022-12-25T09:38:20.607Z,7.91
2022-12-25T09:39:22.344Z,7.92
2022-12-25T09:40:24.097Z,7.92
2022-12-25T09:41:25.812Z,7.93
2022-12-25T09:42:27.559Z,7.95
2022-12-25T09:43:29.270Z,7.95
2022-12-25T09:44:31.069Z,7.96
2022-12-25T09:45:32.761Z,7.97
2022-12-25T09:46:37.286Z,7.98
2022-12-25T09:47:36.226Z,8
2022-12-25T09:48:37.986Z,8.01
2022-12-25T09:49:39.721Z,8.04
2022-12-25T09:50:41.430Z,8.05
2022-12-25T09:51:43.156Z,8.07
2022-12-25T09:52:44.883Z,8.08
2022-12-25T09:53:46.620Z,8.11
2022-12-25T09:54:48.342Z,8.13
2022-12-25T09:55:50.104Z,8.15
2022-12-25T09:56:51.805Z,8.19
2022-12-25T09:57:53.559Z,8.21
2022-12-25T09:58:55.270Z,8.24
2022-12-25T09:59:57.031Z,8.26
2022-12-25T10:00:58.756Z,8.3
2022-12-25T10:02:00.625Z,8.32
2022-12-25T10:03:02.544Z,8.34
2022-12-25T10:04:03.942Z,8.35
2022-12-25T10:05:05.703Z,8.36
2022-12-25T10:06:07.454Z,8.37
2022-12-25T10:07:09.190Z,8.38
2022-12-25T10:08:10.885Z,8.4
2022-12-25T10:09:12.640Z,8.4
2022-12-25T10:10:14.377Z,8.41
2022-12-25T10:11:16.071Z,8.43
2022-12-25T10:12:17.834Z,8.43
2022-12-25T10:13:19.561Z,8.45
2022-12-25T10:14:21.310Z,8.48
2022-12-25T10:15:23.028Z,8.49
2022-12-25T10:16:24.851Z,8.51
2022-12-25T10:17:26.473Z,8.52
2022-12-25T10:18:28.223Z,8.52
2022-12-25T10:19:29.956Z,8.54
2022-12-25T10:20:31.852Z,8.55
2022-12-25T10:21:33.434Z,8.55
2022-12-25T10:22:35.153Z,8.55
2022-12-25T10:23:36.883Z,8.56
2022-12-25T10:24:38.598Z,8.55
2022-12-25T10:25:40.380Z,8.55
2022-12-25T10:26:42.093Z,8.55
2022-12-25T10:27:43.792Z,8.55
2022-12-25T10:28:45.568Z,8.56
2022-12-25T10:29:47.273Z,8.56
2022-12-25T10:30:49.037Z,8.56
2022-12-25T10:31:50.768Z,8.57
2022-12-25T10:32:52.504Z,8.58
2022-12-25T10:33:54.215Z,8.59
2022-12-25T10:34:55.931Z,8.6
2022-12-25T10:35:57.677Z,8.62
2022-12-25T10:36:59.418Z,8.63
2022-12-25T10:38:01.151Z,8.64
2022-12-25T10:39:02.900Z,8.65
2022-12-25T10:40:04.602Z,8.65
2022-12-25T10:41:06.353Z,8.65
2022-12-25T10:42:08.096Z,8.66
2022-12-25T10:43:09.833Z,8.66
2022-12-25T10:44:11.547Z,8.68
2022-12-25T10:45:13.280Z,8.7
2022-12-25T10:46:15.184Z,8.71
2022-12-25T10:47:16.787Z,8.72
2022-12-25T10:48:18.476Z,8.74
2022-12-25T10:49:20.196Z,8.75
2022-12-25T10:50:21.943Z,8.77
2022-12-25T10:51:23.682Z,8.78
2022-12-25T10:52:25.420Z,8.78
2022-12-25T10:53:27.160Z,8.8
2022-12-25T10:54:28.872Z,8.82
2022-12-25T10:55:30.627Z,8.81
2022-12-25T10:56:32.357Z,8.82
2022-12-25T10:57:34.113Z,8.8
2022-12-25T10:58:35.836Z,8.81
2022-12-25T10:59:37.551Z,8.8
2022-12-25T11:00:39.283Z,8.79
2022-12-25T11:01:41.105Z,8.79
2022-12-25T11:02:43.056Z,8.77
2022-12-25T11:03:44.519Z,8.78
2022-12-25T11:04:46.225Z,8.77
2022-12-25T11:05:47.943Z,8.77
2022-12-25T11:06:49.684Z,8.77
2022-12-25T11:07:51.456Z,8.77
2022-12-25T11:08:53.161Z,8.77
2022-12-25T11:09:59.373Z,8.78
2022-12-25T11:10:56.605Z,8.78
2022-12-25T11:11:58.359Z,8.78
2022-12-25T11:13:00.099Z,8.8
2022-12-25T11:14:01.843Z,8.8
2022-12-25T11:15:03.576Z,8.81
2022-12-25T11:16:05.289Z,8.82
2022-12-25T11:17:07.034Z,8.83
2022-12-25T11:18:08.759Z,8.85
2022-12-25T11:19:10.491Z,8.86
2022-12-25T11:20:12.239Z,8.87
2022-12-25T11:21:13.944Z,8.87
2022-12-25T11:22:15.707Z,8.88
2022-12-25T11:23:17.408Z,8.89
2022-12-25T11:24:19.152Z,8.91
2022-12-25T11:25:20.869Z,8.92
2022-12-25T11:26:22.649Z,8.92
2022-12-25T11:27:24.361Z,8.93
2022-12-25T11:28:26.073Z,8.93
2022-12-25T11:29:27.812Z,8.93
2022-12-25T11:30:29.547Z,8.94
2022-12-25T11:31:31.388Z,8.96
2022-12-25T11:32:33.035Z,8.96
2022-12-25T11:33:34.766Z,8.97
2022-12-25T11:34:36.496Z,8.98
2022-12-25T11:35:38.234Z,9
2022-12-25T11:36:39.941Z,9.02
2022-12-25T11:37:41.699Z,9.03
2022-12-25T11:38:43.403Z,9.04
2022-12-25T11:39:45.143Z,9.07
2022-12-25T11:40:46.906Z,9.09
2022-12-25T11:41:48.617Z,9.11
2022-12-25T11:42:50.372Z,9.12
2022-12-25T11:43:52.099Z,9.14
2022-12-25T11:44:53.831Z,9.15
2022-12-25T11:45:55.567Z,9.16
2022-12-25T11:46:57.394Z,9.17
2022-12-25T11:47:59.035Z,9.18
2022-12-25T11:49:00.780Z,9.2
2022-12-25T11:50:02.521Z,9.21
2022-12-25T11:51:04.219Z,9.22
2022-12-25T11:52:05.982Z,9.22
2022-12-25T11:53:07.743Z,9.24
2022-12-25T11:54:09.433Z,9.24
2022-12-25T11:55:11.165Z,9.26
2022-12-25T11:56:12.913Z,9.28
2022-12-25T11:57:14.624Z,9.29
2022-12-25T11:58:16.379Z,9.32
2022-12-25T11:59:18.714Z,9.35
2022-12-25T12:00:19.832Z,9.37
2022-12-25T12:01:21.639Z,9.39
2022-12-25T12:02:23.406Z,9.42
2022-12-25T12:03:25.235Z,9.44
2022-12-25T12:04:30.216Z,9.45
2022-12-25T12:05:28.513Z,9.5
2022-12-25T12:06:30.254Z,9.51
2022-12-25T12:07:32.015Z,9.55
2022-12-25T12:08:33.702Z,9.58
2022-12-25T12:09:35.469Z,9.62
2022-12-25T12:10:37.183Z,9.64
2022-12-25T12:11:38.908Z,9.67
2022-12-25T12:12:46.625Z,9.71
2022-12-25T12:13:42.397Z,9.75
2022-12-25T12:14:44.128Z,9.79
2022-12-25T12:15:45.862Z,9.84
2022-12-25T12:16:47.647Z,9.89
2022-12-25T12:17:49.336Z,9.93
2022-12-25T12:18:51.137Z,9.98
2022-12-25T12:19:52.819Z,10.02
2022-12-25T12:20:54.526Z,10.07
2022-12-25T12:21:56.246Z,10.11
2022-12-25T12:22:58.009Z,10.17
2022-12-25T12:23:59.735Z,10.21
2022-12-25T12:25:01.528Z,10.26
2022-12-25T12:26:03.195Z,10.3
2022-12-25T12:27:04.932Z,10.33
2022-12-25T12:28:06.678Z,10.35
2022-12-25T12:29:08.413Z,10.39
2022-12-25T12:30:10.150Z,10.43
2022-12-25T12:31:11.953Z,10.43
2022-12-25T12:32:13.693Z,10.44
2022-12-25T12:33:15.339Z,10.45
2022-12-25T12:34:17.085Z,10.45
2022-12-25T12:35:18.818Z,10.44
2022-12-25T12:36:29.079Z,10.44
2022-12-25T12:37:25.021Z,10.44
2022-12-25T12:38:23.986Z,10.45
2022-12-25T12:39:25.771Z,10.44
2022-12-25T12:40:27.473Z,10.44
2022-12-25T12:41:29.210Z,10.46
2022-12-25T12:42:30.949Z,10.47
2022-12-25T12:43:32.675Z,10.5
2022-12-25T12:44:34.406Z,10.51
2022-12-25T12:45:36.216Z,10.52
2022-12-25T12:46:37.874Z,10.53
2022-12-25T12:47:39.631Z,10.55
2022-12-25T12:48:41.346Z,10.56
2022-12-25T12:49:43.086Z,10.58
2022-12-25T12:50:44.821Z,10.6
2022-12-25T12:51:46.586Z,10.62
2022-12-25T12:52:48.286Z,10.65
2022-12-25T12:53:50.012Z,10.66
2022-12-25T12:54:51.757Z,10.68
2022-12-25T12:55:53.488Z,10.7
2022-12-25T12:56:55.205Z,10.71
2022-12-25T12:57:56.964Z,10.71
2022-12-25T12:58:58.697Z,10.7
2022-12-25T13:00:06.513Z,10.7
2022-12-25T13:01:02.207Z,10.73
2022-12-25T13:02:03.995Z,10.75
2022-12-25T13:03:05.661Z,10.76
2022-12-25T13:04:07.367Z,10.74
2022-12-25T13:05:09.108Z,10.76
2022-12-25T13:06:10.839Z,10.74
2022-12-25T13:07:12.551Z,10.77
2022-12-25T13:08:14.274Z,10.79
2022-12-25T13:09:16.026Z,10.8
2022-12-25T13:10:17.770Z,10.82
2022-12-25T13:11:19.502Z,10.83
2022-12-25T13:12:21.222Z,10.85
2022-12-25T13:13:22.967Z,10.86
2022-12-25T13:14:24.698Z,10.87
2022-12-25T13:15:26.419Z,10.88
2022-12-25T13:16:28.275Z,10.89
2022-12-25T13:17:29.899Z,10.89
2022-12-25T13:18:31.623Z,10.89
2022-12-25T13:19:33.392Z,10.9
2022-12-25T13:20:35.123Z,10.9
2022-12-25T13:21:36.840Z,10.91
2022-12-25T13:22:38.591Z,10.91
2022-12-25T13:23:40.312Z,10.91
2022-12-25T13:24:42.082Z,10.9
2022-12-25T13:25:43.773Z,10.91
2022-12-25T13:26:45.533Z,10.9
2022-12-25T13:27:47.285Z,10.89
2022-12-25T13:28:48.987Z,10.88
2022-12-25T13:29:50.761Z,10.88
2022-12-25T13:30:52.457Z,10.86
2022-12-25T13:31:54.267Z,10.86
2022-12-25T13:32:55.971Z,10.86
2022-12-25T13:33:57.671Z,10.86
2022-12-25T13:34:59.389Z,10.83
2022-12-25T13:36:01.129Z,10.82
2022-12-25T13:37:02.855Z,10.8
2022-12-25T13:38:04.598Z,10.77
2022-12-25T13:39:06.340Z,10.76
2022-12-25T13:40:08.063Z,10.74
2022-12-25T13:41:09.795Z,10.71
2022-12-25T13:42:12.976Z,10.71
2022-12-25T13:43:13.500Z,10.69
2022-12-25T13:44:15.243Z,10.66